createdAt,value
2023-01-17T00:01:24.369Z,4.80
2023-01-17T00:04:15.874Z,4.86
2023-01-17T00:07:06.026Z,4.88
2023-01-17T00:09:57.962Z,4.91
2023-01-17T00:12:32.249Z,4.91
2023-01-17T00:15:06.431Z,4.91
2023-01-17T00:17:39.410Z,4.92
2023-01-17T00:20:45.234Z,4.92
2023-01-17T00:23:37.191Z,4.92
2023-01-17T00:26:13.984Z,4.98
2023-01-17T00:28:46.658Z,5.00
2023-01-17T00:31:18.714Z,5.04
2023-01-17T00:33:50.490Z,5.07
2023-01-17T00:36:23.423Z,5.13
2023-01-17T00:38:55.105Z,5.18
2023-01-17T00:41:28.681Z,5.23
2023-01-17T00:44:18.988Z,5.27
2023-01-17T00:47:09.400Z,5.27
2023-01-17T00:49:59.524Z,5.28
2023-01-17T00:52:51.351Z,5.28
2023-01-17T00:55:41.851Z,5.27
2023-01-17T00:58:32.273Z,5.23
2023-01-17T01:01:24.694Z,5.18
2023-01-17T01:04:14.811Z,5.12
2023-01-17T01:07:04.960Z,5.09
2023-01-17T01:09:56.410Z,5.08
2023-01-17T01:12:46.710Z,5.08
2023-01-17T01:15:36.812Z,5.09
2023-01-17T01:18:29.786Z,5.12
2023-01-17T01:21:23.208Z,5.19
2023-01-17T01:24:13.401Z,5.21
2023-01-17T01:27:05.376Z,5.29
2023-01-17T01:29:55.445Z,5.33
2023-01-17T01:32:45.574Z,5.39
2023-01-17T01:35:19.099Z,5.44
2023-01-17T01:37:52.051Z,5.47
2023-01-17T01:40:24.944Z,5.50
2023-01-17T01:43:06.069Z,5.54
2023-01-17T01:45:39.353Z,5.56
2023-01-17T01:48:29.943Z,5.63
2023-01-17T01:51:05.688Z,5.63
2023-01-17T01:53:41.907Z,5.68
2023-01-17T01:56:16.461Z,5.73
2023-01-17T01:58:52.516Z,5.77
2023-01-17T02:01:25.799Z,5.80
2023-01-17T02:03:58.818Z,5.80
2023-01-17T02:06:36.021Z,5.82
2023-01-17T02:09:11.612Z,5.83
2023-01-17T02:11:46.882Z,5.84
2023-01-17T02:14:22.873Z,5.86
2023-01-17T02:17:07.231Z,5.86
2023-01-17T02:20:16.960Z,5.84
2023-01-17T02:23:19.491Z,5.79
2023-01-17T02:26:15.580Z,5.74
2023-01-17T02:29:10.798Z,5.66
2023-01-17T02:31:49.613Z,5.61
2023-01-17T02:34:29.773Z,5.53
2023-01-17T02:37:08.780Z,5.42
2023-01-17T02:39:49.929Z,5.32
2023-01-17T02:42:27.834Z,5.22
2023-01-17T02:45:00.766Z,5.15
2023-01-17T02:47:35.468Z,5.10
2023-01-17T02:50:13.529Z,5.07
2023-01-17T02:53:06.248Z,5.04
2023-01-17T02:55:51.141Z,5.02
2023-01-17T02:58:42.897Z,5.03
2023-01-17T03:01:26.138Z,5.07
2023-01-17T03:04:04.855Z,5.12
2023-01-17T03:06:41.813Z,5.17
2023-01-17T03:09:16.851Z,5.23
2023-01-17T03:11:50.162Z,5.27
2023-01-17T03:14:23.001Z,5.31
2023-01-17T03:16:57.005Z,5.37
2023-01-17T03:19:31.428Z,5.40
2023-01-17T03:22:04.423Z,5.39
2023-01-17T03:24:37.289Z,5.35
2023-01-17T03:27:10.102Z,5.31
2023-01-17T03:29:43.050Z,5.26
2023-01-17T03:32:16.069Z,5.19
2023-01-17T03:34:50.348Z,5.16
2023-01-17T03:37:23.178Z,5.08
2023-01-17T03:39:56.155Z,5.01
2023-01-17T03:42:28.997Z,4.94
2023-01-17T03:45:01.872Z,4.90
2023-01-17T03:47:36.218Z,4.85
2023-01-17T03:50:13.096Z,4.80
2023-01-17T03:52:45.934Z,4.73
2023-01-17T03:55:19.158Z,4.67
2023-01-17T03:57:52.276Z,4.59
2023-01-17T04:00:25.489Z,4.52
2023-01-17T04:02:58.470Z,4.43
2023-01-17T04:05:32.911Z,4.35
2023-01-17T04:08:07.187Z,4.28
2023-01-17T04:10:40.075Z,4.21
2023-01-17T04:13:13.679Z,4.14
2023-01-17T04:15:48.503Z,4.06
2023-01-17T04:18:23.151Z,4.00
2023-01-17T04:20:57.472Z,3.95
2023-01-17T04:23:30.429Z,3.88
2023-01-17T04:26:03.677Z,3.82
2023-01-17T04:28:36.528Z,3.74
2023-01-17T04:31:14.285Z,3.67
2023-01-17T04:33:47.245Z,3.64
2023-01-17T04:36:21.523Z,3.59
2023-01-17T04:38:54.346Z,3.55
2023-01-17T04:41:27.425Z,3.50
2023-01-17T04:44:00.462Z,3.45
2023-01-17T04:46:33.683Z,3.41
2023-01-17T04:49:06.567Z,3.35
2023-01-17T04:51:40.902Z,3.30
2023-01-17T04:54:13.810Z,3.25
2023-01-17T04:56:46.719Z,3.18
2023-01-17T04:59:19.661Z,3.14
2023-01-17T05:01:52.593Z,3.09
2023-01-17T05:04:25.616Z,3.03
2023-01-17T05:07:00.754Z,3.00
2023-01-17T05:09:33.639Z,2.93
2023-01-17T05:12:06.972Z,2.91
2023-01-17T05:14:39.815Z,2.87
2023-01-17T05:17:12.805Z,2.84
2023-01-17T05:19:46.259Z,2.84
2023-01-17T05:22:20.629Z,2.86
2023-01-17T05:24:53.580Z,2.87
2023-01-17T05:27:27.058Z,2.89
2023-01-17T05:29:59.876Z,2.90
2023-01-17T05:32:33.248Z,2.91
2023-01-17T05:35:07.047Z,2.93
2023-01-17T05:37:41.342Z,2.94
2023-01-17T05:40:14.716Z,2.94
2023-01-17T05:42:48.061Z,2.93
2023-01-17T05:45:22.961Z,2.93
2023-01-17T05:47:57.997Z,2.96
2023-01-17T05:50:33.642Z,2.96
2023-01-17T05:53:10.398Z,2.94
2023-01-17T05:55:43.745Z,2.92
2023-01-17T05:58:19.456Z,2.94
2023-01-17T06:00:52.297Z,2.91
2023-01-17T06:03:25.229Z,2.89
2023-01-17T06:05:58.046Z,2.87
2023-01-17T06:08:32.412Z,2.83
2023-01-17T06:11:05.262Z,2.77
2023-01-17T06:13:38.296Z,2.73
2023-01-17T06:16:11.253Z,2.69
2023-01-17T06:18:44.247Z,2.64
2023-01-17T06:21:17.100Z,2.60
2023-01-17T06:23:51.756Z,2.55
2023-01-17T06:26:24.640Z,2.49
2023-01-17T06:28:57.586Z,2.46
2023-01-17T06:31:30.487Z,2.42
2023-01-17T06:34:04.216Z,2.38
2023-01-17T06:36:37.087Z,2.35
2023-01-17T06:39:14.969Z,2.34
2023-01-17T06:41:48.001Z,2.31
2023-01-17T06:44:20.930Z,2.30
2023-01-17T06:46:54.055Z,2.28
2023-01-17T06:49:27.195Z,2.27
2023-01-17T06:52:00.162Z,2.26
2023-01-17T06:54:34.690Z,2.29
2023-01-17T06:57:07.508Z,2.28
2023-01-17T06:59:40.405Z,2.31
2023-01-17T07:02:13.376Z,2.33
2023-01-17T07:04:46.336Z,2.35
2023-01-17T07:07:19.261Z,2.36
2023-01-17T07:09:53.539Z,2.37
2023-01-17T07:12:26.361Z,2.39
2023-01-17T07:14:59.250Z,2.37
2023-01-17T07:17:32.097Z,2.38
2023-01-17T07:20:05.767Z,2.37
2023-01-17T07:22:38.644Z,2.40
2023-01-17T07:25:13.044Z,2.42
2023-01-17T07:27:46.232Z,2.42
2023-01-17T07:30:19.601Z,2.45
2023-01-17T07:32:54.067Z,2.46
2023-01-17T07:35:27.289Z,2.48
2023-01-17T07:38:00.489Z,2.48
2023-01-17T07:40:41.720Z,2.51
2023-01-17T07:43:15.037Z,2.53
2023-01-17T07:45:50.818Z,2.56
2023-01-17T07:48:25.495Z,2.59
2023-01-17T07:50:59.679Z,2.65
2023-01-17T07:53:33.666Z,2.69
2023-01-17T07:56:09.393Z,2.75
2023-01-17T07:58:42.947Z,2.81
2023-01-17T08:01:16.739Z,2.85
2023-01-17T08:03:54.798Z,2.91
2023-01-17T08:06:29.310Z,2.96
2023-01-17T08:09:02.266Z,3.01
2023-01-17T08:11:36.507Z,3.07
2023-01-17T08:14:09.345Z,3.11
2023-01-17T08:16:42.266Z,3.18
2023-01-17T08:19:16.787Z,3.23
2023-01-17T08:21:49.666Z,3.26
2023-01-17T08:24:22.544Z,3.32
2023-01-17T08:26:57.214Z,3.38
2023-01-17T08:29:30.434Z,3.45
2023-01-17T08:32:03.397Z,3.49
2023-01-17T08:34:36.253Z,3.55
2023-01-17T08:37:09.687Z,3.59
2023-01-17T08:39:42.505Z,3.66
2023-01-17T08:42:17.280Z,3.69
2023-01-17T08:44:50.480Z,3.74
2023-01-17T08:47:23.415Z,3.79
2023-01-17T08:49:56.325Z,3.84
2023-01-17T08:52:29.693Z,3.87
2023-01-17T08:55:02.576Z,3.92
2023-01-17T08:57:37.118Z,3.98
2023-01-17T09:00:13.606Z,4.04
2023-01-17T09:02:46.488Z,4.07
2023-01-17T09:05:19.363Z,4.12
2023-01-17T09:07:52.304Z,4.16
2023-01-17T09:10:25.340Z,4.21
2023-01-17T09:12:59.602Z,4.27
2023-01-17T09:15:32.550Z,4.30
2023-01-17T09:18:05.477Z,4.37
2023-01-17T09:20:38.416Z,4.44
2023-01-17T09:23:11.434Z,4.50
2023-01-17T09:25:44.641Z,4.57
2023-01-17T09:28:20.218Z,4.64
2023-01-17T09:30:53.183Z,4.70
2023-01-17T09:33:26.147Z,4.77
2023-01-17T09:36:05.438Z,4.85
2023-01-17T09:38:39.008Z,4.92
2023-01-17T09:41:27.650Z,5.01
2023-01-17T09:44:13.788Z,5.08
2023-01-17T09:46:49.383Z,5.17
2023-01-17T09:49:34.070Z,5.23
2023-01-17T09:52:09.392Z,5.31
2023-01-17T09:54:44.130Z,5.41
2023-01-17T09:57:39.406Z,5.49
2023-01-17T10:00:28.726Z,5.58
2023-01-17T10:03:18.676Z,5.65
2023-01-17T10:06:12.814Z,5.73
2023-01-17T10:09:08.117Z,5.83
2023-01-17T10:12:05.709Z,5.91
2023-01-17T10:15:14.474Z,5.99
2023-01-17T10:17:58.548Z,6.07
2023-01-17T10:20:44.219Z,6.17
2023-01-17T10:23:36.616Z,6.26
2023-01-17T10:26:13.684Z,6.33
2023-01-17T10:28:51.195Z,6.41
2023-01-17T10:31:25.497Z,6.49
2023-01-17T10:34:08.177Z,6.56
2023-01-17T10:36:45.879Z,6.61
2023-01-17T10:39:22.293Z,6.67
2023-01-17T10:41:58.044Z,6.70
2023-01-17T10:44:40.079Z,6.77
2023-01-17T10:47:15.922Z,6.81
2023-01-17T10:49:53.740Z,6.89
2023-01-17T10:52:40.477Z,6.94
2023-01-17T10:55:28.350Z,6.98
2023-01-17T10:58:01.432Z,7.01
2023-01-17T11:00:45.178Z,7.04
2023-01-17T11:03:20.806Z,7.10
2023-01-17T11:06:19.998Z,7.14
2023-01-17T11:08:55.237Z,7.20
2023-01-17T11:11:32.078Z,7.25
2023-01-17T11:14:07.444Z,7.31
2023-01-17T11:16:42.264Z,7.34
2023-01-17T11:19:22.541Z,7.36
2023-01-17T11:22:02.768Z,7.40
2023-01-17T11:24:39.990Z,7.41
2023-01-17T11:27:26.374Z,7.46
2023-01-17T11:30:16.852Z,7.48
2023-01-17T11:32:53.809Z,7.49
2023-01-17T11:35:29.057Z,7.52
2023-01-17T11:38:11.589Z,7.54
2023-01-17T11:40:46.019Z,7.52
2023-01-17T11:43:23.174Z,7.52
2023-01-17T11:46:04.873Z,7.52
2023-01-17T11:48:39.800Z,7.54
2023-01-17T11:51:24.033Z,7.55
2023-01-17T11:54:09.605Z,7.60
2023-01-17T11:56:46.069Z,7.59
2023-01-17T11:59:30.009Z,7.62
2023-01-17T12:02:35.753Z,7.65
2023-01-17T12:05:29.062Z,7.70
2023-01-17T12:08:11.429Z,7.71
2023-01-17T12:10:55.276Z,7.72
2023-01-17T12:13:58.691Z,7.74
2023-01-17T12:16:50.354Z,7.74
2023-01-17T12:19:36.644Z,7.75
2023-01-17T12:22:27.788Z,7.78
2023-01-17T12:25:30.178Z,7.81
2023-01-17T12:28:25.779Z,7.83
2023-01-17T12:31:13.316Z,7.87
2023-01-17T12:33:52.021Z,7.90
2023-01-17T12:36:43.486Z,7.93
2023-01-17T12:39:20.260Z,7.93
2023-01-17T12:42:02.483Z,7.94
2023-01-17T12:44:50.189Z,7.93
2023-01-17T12:47:23.295Z,7.91
2023-01-17T12:50:07.648Z,7.90
2023-01-17T12:52:52.424Z,7.87
2023-01-17T12:55:36.855Z,7.85
2023-01-17T12:58:17.579Z,7.82
2023-01-17T13:00:58.792Z,7.79
2023-01-17T13:03:41.596Z,7.77
2023-01-17T13:06:25.035Z,7.73
2023-01-17T13:09:02.015Z,7.70
2023-01-17T13:11:41.220Z,7.70
2023-01-17T13:14:14.098Z,7.67
2023-01-17T13:16:57.888Z,7.67
2023-01-17T13:19:41.222Z,7.64
2023-01-17T13:22:18.334Z,7.62
2023-01-17T13:25:00.371Z,7.60
2023-01-17T13:28:01.653Z,7.55
2023-01-17T13:31:02.871Z,7.53
2023-01-17T13:34:12.666Z,7.50
2023-01-17T13:36:57.864Z,7.53
2023-01-17T13:39:53.258Z,7.54
2023-01-17T13:42:36.199Z,7.54
2023-01-17T13:45:10.536Z,7.53
2023-01-17T13:47:43.761Z,7.52
2023-01-17T13:50:48.883Z,7.52
2023-01-17T13:53:58.346Z,7.52
2023-01-17T13:56:35.379Z,7.51
2023-01-17T13:59:30.306Z,7.49
2023-01-17T14:02:03.188Z,7.41
2023-01-17T14:05:08.433Z,7.36
2023-01-17T14:07:47.713Z,7.30
2023-01-17T14:10:40.144Z,7.25
2023-01-17T14:13:33.247Z,7.18
2023-01-17T14:16:28.683Z,7.14
2023-01-17T14:19:01.740Z,7.07
2023-01-17T14:21:35.780Z,7.02
2023-01-17T14:24:17.185Z,6.97
2023-01-17T14:26:56.456Z,6.92
2023-01-17T14:29:52.282Z,6.85
2023-01-17T14:32:29.245Z,6.79
2023-01-17T14:35:03.340Z,6.74
2023-01-17T14:37:45.884Z,6.71
2023-01-17T14:40:22.319Z,6.69
2023-01-17T14:43:01.956Z,6.66
2023-01-17T14:45:36.998Z,6.61
2023-01-17T14:48:17.288Z,6.59
2023-01-17T14:50:52.014Z,6.54
2023-01-17T14:53:28.006Z,6.50
2023-01-17T14:56:04.150Z,6.48
2023-01-17T14:58:37.588Z,6.44
2023-01-17T15:01:13.642Z,6.42
2023-01-17T15:03:48.853Z,6.37
2023-01-17T15:06:24.973Z,6.35
2023-01-17T15:09:00.983Z,6.34
2023-01-17T15:11:37.697Z,6.31
2023-01-17T15:14:19.976Z,6.29
2023-01-17T15:16:52.971Z,6.26
2023-01-17T15:19:25.825Z,6.24
2023-01-17T15:21:59.755Z,6.23
2023-01-17T15:24:39.878Z,6.23
2023-01-17T15:27:16.986Z,6.24
2023-01-17T15:29:50.376Z,6.24
2023-01-17T15:32:28.017Z,6.25
2023-01-17T15:35:03.026Z,6.25
2023-01-17T15:37:39.081Z,6.24
2023-01-17T15:40:19.114Z,6.26
2023-01-17T15:42:57.711Z,6.25
2023-01-17T15:45:32.340Z,6.20
2023-01-17T15:48:31.912Z,6.21
2023-01-17T15:51:05.683Z,6.17
2023-01-17T15:53:41.113Z,6.15
2023-01-17T15:56:22.866Z,6.14
2023-01-17T15:59:17.259Z,6.07
2023-01-17T16:01:57.088Z,6.04
2023-01-17T16:04:34.886Z,5.98
2023-01-17T16:07:19.664Z,5.93
2023-01-17T16:09:53.012Z,5.88
2023-01-17T16:12:25.908Z,5.85
2023-01-17T16:15:11.647Z,5.84
2023-01-17T16:17:47.895Z,5.81
2023-01-17T16:20:24.960Z,5.81
2023-01-17T16:23:00.237Z,5.82
2023-01-17T16:25:34.020Z,5.83
2023-01-17T16:28:07.545Z,5.86
2023-01-17T16:30:44.615Z,5.88
2023-01-17T16:33:17.527Z,5.88
2023-01-17T16:35:53.235Z,5.90
2023-01-17T16:38:26.124Z,5.92
2023-01-17T16:40:59.047Z,5.91
2023-01-17T16:43:31.960Z,5.89
2023-01-17T16:46:08.005Z,5.87
2023-01-17T16:48:40.912Z,5.84
2023-01-17T16:51:13.861Z,5.82
2023-01-17T16:53:46.836Z,5.81
2023-01-17T16:56:20.650Z,5.78
2023-01-17T16:58:54.237Z,5.77
2023-01-17T17:01:28.971Z,5.72
2023-01-17T17:04:01.920Z,5.69
2023-01-17T17:06:35.029Z,5.67
2023-01-17T17:09:07.947Z,5.65
2023-01-17T17:11:42.979Z,5.65
2023-01-17T17:14:15.799Z,5.63
2023-01-17T17:16:52.035Z,5.64
2023-01-17T17:19:25.176Z,5.66
2023-01-17T17:22:00.022Z,5.66
2023-01-17T17:24:33.310Z,5.65
2023-01-17T17:27:06.249Z,5.66
2023-01-17T17:29:39.357Z,5.66
2023-01-17T17:32:13.683Z,5.67
2023-01-17T17:34:46.696Z,5.65
2023-01-17T17:37:19.747Z,5.64
2023-01-17T17:39:52.757Z,5.65
2023-01-17T17:42:25.791Z,5.65
2023-01-17T17:44:58.699Z,5.69
2023-01-17T17:47:32.968Z,5.71
2023-01-17T17:50:06.458Z,5.71
2023-01-17T17:52:40.031Z,5.75
2023-01-17T17:55:13.195Z,5.76
2023-01-17T17:57:46.456Z,5.76
2023-01-17T18:00:20.825Z,5.75
2023-01-17T18:02:55.128Z,5.72
2023-01-17T18:05:28.254Z,5.69
2023-01-17T18:08:01.367Z,5.67
2023-01-17T18:10:34.251Z,5.64
2023-01-17T18:13:07.304Z,5.60
2023-01-17T18:15:40.117Z,5.56
2023-01-17T18:18:14.483Z,5.55
2023-01-17T18:20:47.433Z,5.49
2023-01-17T18:23:20.785Z,5.43
2023-01-17T18:25:53.681Z,5.38
2023-01-17T18:28:27.358Z,5.31
2023-01-17T18:31:06.493Z,5.27
2023-01-17T18:33:41.352Z,5.19
2023-01-17T18:36:14.908Z,5.11
2023-01-17T18:38:49.371Z,5.00
2023-01-17T18:41:24.449Z,4.90
2023-01-17T18:43:57.736Z,4.81
2023-01-17T18:46:31.799Z,4.69
2023-01-17T18:49:06.408Z,4.62
2023-01-17T18:51:39.437Z,4.52
2023-01-17T18:54:12.399Z,4.43
2023-01-17T18:56:45.409Z,4.36
2023-01-17T18:59:19.718Z,4.28
2023-01-17T19:01:53.187Z,4.22
2023-01-17T19:04:29.852Z,4.17
2023-01-17T19:07:02.777Z,4.09
2023-01-17T19:09:35.782Z,4.03
2023-01-17T19:12:09.152Z,3.97
2023-01-17T19:14:42.051Z,3.93
2023-01-17T19:17:14.902Z,3.89
2023-01-17T19:19:49.564Z,3.87
2023-01-17T19:22:22.771Z,3.83
2023-01-17T19:24:55.776Z,3.81
2023-01-17T19:27:28.662Z,3.78
2023-01-17T19:30:01.634Z,3.77
2023-01-17T19:32:34.589Z,3.75
2023-01-17T19:35:11.302Z,3.72
2023-01-17T19:37:46.376Z,3.72
2023-01-17T19:40:21.000Z,3.69
2023-01-17T19:42:54.265Z,3.67
2023-01-17T19:45:27.203Z,3.65
2023-01-17T19:48:00.145Z,3.62
2023-01-17T19:50:34.867Z,3.61
2023-01-17T19:53:08.001Z,3.59
2023-01-17T19:55:41.093Z,3.60
2023-01-17T19:58:14.262Z,3.60
2023-01-17T20:00:47.774Z,3.60
2023-01-17T20:03:20.745Z,3.63
2023-01-17T20:05:58.711Z,3.67
2023-01-17T20:08:31.733Z,3.70
2023-01-17T20:11:05.745Z,3.76
2023-01-17T20:13:38.621Z,3.82
2023-01-17T20:16:13.834Z,3.91
2023-01-17T20:18:46.810Z,3.97
2023-01-17T20:21:23.079Z,4.01
2023-01-17T20:23:58.129Z,4.01
2023-01-17T20:26:35.005Z,4.03
2023-01-17T20:29:11.764Z,4.01
2023-01-17T20:31:45.955Z,3.98
2023-01-17T20:34:19.696Z,3.99
2023-01-17T20:36:57.471Z,4.02
2023-01-17T20:39:30.591Z,4.03
2023-01-17T20:42:04.075Z,4.06
2023-01-17T20:44:37.864Z,4.06
2023-01-17T20:47:10.907Z,4.09
2023-01-17T20:49:43.836Z,4.08
2023-01-17T20:52:18.318Z,4.09
2023-01-17T20:54:51.836Z,4.05
2023-01-17T20:57:24.750Z,4.00
2023-01-17T20:59:57.919Z,3.97
2023-01-17T21:02:31.089Z,3.93
2023-01-17T21:05:04.219Z,3.87
2023-01-17T21:07:38.646Z,3.83
2023-01-17T21:10:12.868Z,3.75
2023-01-17T21:12:46.709Z,3.70
2023-01-17T21:15:20.023Z,3.67
2023-01-17T21:17:53.215Z,3.60
2023-01-17T21:20:27.486Z,3.55
2023-01-17T21:23:01.933Z,3.52
2023-01-17T21:25:34.791Z,3.46
2023-01-17T21:28:07.824Z,3.45
2023-01-17T21:30:40.852Z,3.44
2023-01-17T21:33:14.162Z,3.43
2023-01-17T21:35:47.861Z,3.44
2023-01-17T21:38:22.631Z,3.48
2023-01-17T21:40:58.049Z,3.53
2023-01-17T21:43:31.059Z,3.56
2023-01-17T21:46:05.368Z,3.58
2023-01-17T21:48:40.763Z,3.61
2023-01-17T21:51:13.723Z,3.60
2023-01-17T21:53:48.085Z,3.60
2023-01-17T21:56:38.194Z,3.59
2023-01-17T21:59:11.353Z,3.55
2023-01-17T22:01:44.467Z,3.49
2023-01-17T22:04:17.557Z,3.46
2023-01-17T22:06:50.754Z,3.41
2023-01-17T22:09:25.033Z,3.39
2023-01-17T22:11:57.869Z,3.32
2023-01-17T22:14:30.820Z,3.28
2023-01-17T22:17:03.772Z,3.21
2023-01-17T22:19:36.644Z,3.17
2023-01-17T22:22:09.572Z,3.12
2023-01-17T22:24:43.845Z,3.09
2023-01-17T22:27:16.712Z,3.04
2023-01-17T22:29:49.590Z,3.02
2023-01-17T22:32:22.559Z,3.01
2023-01-17T22:34:55.428Z,3.00
2023-01-17T22:37:28.243Z,3.00
2023-01-17T22:40:05.011Z,3.00
2023-01-17T22:42:37.857Z,3.00
2023-01-17T22:45:11.576Z,3.01
2023-01-17T22:47:44.723Z,3.01
2023-01-17T22:50:18.319Z,3.02
2023-01-17T22:52:51.353Z,3.01
2023-01-17T22:55:25.802Z,3.01
2023-01-17T22:57:58.687Z,3.00
2023-01-17T23:00:31.631Z,2.99
2023-01-17T23:03:06.264Z,2.97
2023-01-17T23:05:46.551Z,2.96
2023-01-17T23:08:20.118Z,2.94
2023-01-17T23:11:12.189Z,2.93
2023-01-17T23:13:45.116Z,2.89
2023-01-17T23:16:35.329Z,2.88
2023-01-17T23:19:24.055Z,2.86
2023-01-17T23:22:19.507Z,2.87
2023-01-17T23:24:54.169Z,2.86
2023-01-17T23:27:47.878Z,2.83
2023-01-17T23:30:23.546Z,2.79
2023-01-17T23:32:59.547Z,2.77
2023-01-17T23:35:34.979Z,2.75
2023-01-17T23:38:29.464Z,2.72
2023-01-17T23:41:21.599Z,2.71
2023-01-17T23:43:57.657Z,2.68
2023-01-17T23:46:30.911Z,2.65
2023-01-17T23:49:03.881Z,2.62
2023-01-17T23:51:36.729Z,2.61
2023-01-17T23:54:10.293Z,2.60
2023-01-17T23:56:43.541Z,2.58
2023-01-17T23:59:17.966Z,2.58
